Time;durP1;ratioP1;P1;durP2;ratioP2;P2;SDS_P1;SDS_P2;PMS_P1;PMS_P2;Temp;Humidity;BMP_temperature;BMP_pressure;BME280_temperature;BME280_humidity;BME280_pressure;Samples;Min_cycle;Max_cycle;Signal;HPM_P1;HPM_P2
2021/12/21 00:01:53;;;;;;;22.52;9.68;;;;;;;1.33;77.14;102599.31;5030121;28;20435;-70
2021/12/21 00:04:18;;;;;;;29.05;10.63;;;;;;;1.32;77.35;102603.81;5033007;28;20033;-69
2021/12/21 00:06:44;;;;;;;22.80;9.82;;;;;;;1.29;77.22;102597.88;5032672;28;20029;-69
2021/12/21 00:09:10;;;;;;;23.52;8.90;;;;;;;1.27;77.28;102602.47;5032398;28;20037;-70
2021/12/21 00:11:35;;;;;;;22.88;8.85;;;;;;;1.26;76.95;102596.28;5032779;28;20460;-70
2021/12/21 00:14:15;;;;;;;19.58;8.60;;;;;;;1.23;77.03;102601.88;5031521;28;20029;-69
2021/12/21 00:17:07;;;;;;;20.20;8.43;;;;;;;1.20;77.00;102600.28;5021296;28;20431;-70
2021/12/21 00:19:48;;;;;;;23.67;9.70;;;;;;;1.20;77.43;102596.78;5028844;28;20542;-70
2021/12/21 00:22:40;;;;;;;21.48;8.98;;;;;;;1.16;77.51;102596.19;5031465;28;20037;-69
2021/12/21 00:24:59;;;;;;;23.58;9.15;;;;;;;1.08;78.17;102589.75;5030317;28;20128;-68
2021/12/21 00:27:25;;;;;;;21.83;9.27;;;;;;;1.13;77.57;102593.72;5030941;28;20128;-69
2021/12/21 00:29:50;;;;;;;24.55;9.23;;;;;;;1.11;77.10;102587.66;5019782;28;20056;-69
2021/12/21 00:32:15;;;;;;;22.27;8.80;;;;;;;1.06;78.01;102587.19;5032716;28;20029;-69
2021/12/21 00:34:41;;;;;;;20.88;8.57;;;;;;;1.02;77.35;102577.72;5032427;28;20033;-69
2021/12/21 00:37:06;;;;;;;22.10;8.77;;;;;;;1.04;77.92;102589.13;5031386;28;20045;-69
2021/12/21 00:39:31;;;;;;;24.13;9.95;;;;;;;0.99;77.67;102583.31;5031875;28;20541;-70
2021/12/21 00:41:57;;;;;;;21.73;9.18;;;;;;;0.94;77.42;102586.31;5031737;28;20029;-69
2021/12/21 00:44:22;;;;;;;23.52;9.55;;;;;;;0.94;77.55;102572.16;5023137;28;20437;-69
2021/12/21 00:46:47;;;;;;;21.92;8.95;;;;;;;0.86;77.08;102573.59;5014615;28;20033;-69
2021/12/21 00:49:14;;;;;;;20.83;8.65;;;;;;;0.83;77.92;102589.81;5031845;28;20029;-70
2021/12/21 00:51:42;;;;;;;21.33;9.07;;;;;;;0.74;77.40;102582.53;5032213;28;20108;-68
2021/12/21 00:54:07;;;;;;;24.40;9.35;;;;;;;0.75;77.91;102575.38;5032250;28;20021;-69
2021/12/21 00:56:33;;;;;;;21.45;8.45;;;;;;;0.69;77.76;102566.03;5032252;28;20075;-69
2021/12/21 00:58:58;;;;;;;20.65;9.32;;;;;;;0.69;78.05;102569.56;5031884;28;20044;-69
2021/12/21 01:01:23;;;;;;;21.23;9.35;;;;;;;0.66;78.07;102575.09;5021782;28;20396;-69
2021/12/21 01:03:52;;;;;;;26.13;9.30;;;;;;;0.64;77.99;102568.22;5027066;28;20033;-70
2021/12/21 01:09:47;;;;;;;22.33;9.75;;;;;;;0.69;78.08;102572.25;5031682;28;20044;-70
2021/12/21 01:11:35;;;;;;;21.23;9.68;;;;;;;0.65;77.65;102575.22;5018171;28;20403;-68
2021/12/21 01:19:37;;;;;;;24.02;10.05;;;;;;;0.61;78.15;102579.09;5024159;28;20068;-69
2021/12/21 01:22:16;;;;;;;;;;;;;;;0.76;78.59;102574.44;5022905;28;20033;-69
2021/12/21 01:34:55;;;;;;;24.58;9.63;;;;;;;0.57;78.94;102572.31;5020928;28;20041;-69
2021/12/21 01:39:59;;;;;;;22.65;9.55;;;;;;;0.53;78.04;102566.38;5024407;28;20041;-69
2021/12/21 01:49:36;;;;;;;23.40;9.88;;;;;;;0.55;79.04;102563.59;5030648;28;20112;-69
2021/12/21 01:50:22;;;;;;;22.80;9.85;;;;;;;0.51;78.49;102558.50;5035297;28;20072;-69
2021/12/21 01:52:48;;;;;;;23.80;10.48;;;;;;;0.52;78.70;102559.34;5035405;28;20053;-68
2021/12/21 01:55:13;;;;;;;25.42;10.43;;;;;;;0.48;78.67;102553.41;5035183;28;20431;-70
2021/12/21 01:57:38;;;;;;;24.23;9.63;;;;;;;0.48;78.36;102550.75;5035358;28;20040;-69
2021/12/21 02:00:05;;;;;;;27.60;9.95;;;;;;;0.50;78.20;102550.63;5035023;28;20044;-69
2021/12/21 02:02:30;;;;;;;24.20;10.13;;;;;;;0.46;77.63;102560.66;5032376;28;20029;-69
2021/12/21 02:04:56;;;;;;;24.00;9.27;;;;;;;0.46;77.89;102557.16;5033644;28;20492;-69
2021/12/21 02:07:21;;;;;;;31.42;10.52;;;;;;;0.46;78.10;102550.00;5035347;28;20071;-68
2021/12/21 02:09:46;;;;;;;26.58;9.93;;;;;;;0.46;79.15;102542.00;5034857;28;20033;-69
2021/12/21 02:12:16;;;;;;;23.33;9.65;;;;;;;0.38;78.59;102539.09;5034797;28;20032;-69
2021/12/21 02:14:43;;;;;;;29.45;10.73;;;;;;;0.34;79.55;102537.59;5035075;28;20511;-68
2021/12/21 02:19:56;;;;;;;22.67;10.07;;;;;;;0.33;79.97;102538.56;5020898;28;20034;-69
2021/12/21 02:22:24;;;;;;;25.75;10.73;;;;;;;0.31;78.78;102540.50;5017706;28;20033;-69
2021/12/21 02:25:01;;;;;;;25.40;9.43;;;;;;;0.29;79.60;102539.78;5035083;28;20060;-69
2021/12/21 02:27:30;;;;;;;25.35;9.52;;;;;;;0.33;79.07;102541.22;5034716;28;20116;-68
2021/12/21 02:29:56;;;;;;;23.65;10.30;;;;;;;0.30;78.63;102541.47;5034897;28;20045;-69
2021/12/21 02:32:23;;;;;;;26.27;9.90;;;;;;;0.29;78.57;102537.97;5029371;28;20039;-68
2021/12/21 02:34:49;;;;;;;25.13;10.20;;;;;;;0.31;78.64;102537.84;5034246;28;20038;-69
2021/12/21 02:37:14;;;;;;;23.83;9.38;;;;;;;0.29;78.83;102537.97;5034363;28;20110;-69
2021/12/21 02:39:40;;;;;;;24.13;10.25;;;;;;;0.24;79.30;102539.25;5034194;28;20029;-70
2021/12/21 02:42:06;;;;;;;25.58;9.95;;;;;;;0.26;79.85;102532.03;5032958;28;20037;-69
2021/12/21 02:44:32;;;;;;;25.90;9.75;;;;;;;0.23;79.46;102526.91;5034511;28;20045;-69
2021/12/21 02:46:58;;;;;;;28.90;10.75;;;;;;;0.25;79.83;102535.66;5034061;28;20056;-68
2021/12/21 02:49:23;;;;;;;28.55;10.30;;;;;;;0.18;79.01;102532.56;5034100;28;20065;-69
2021/12/21 02:51:49;;;;;;;23.42;9.43;;;;;;;0.24;79.63;102539.25;5034402;28;20492;-69
2021/12/21 02:54:17;;;;;;;24.73;10.60;;;;;;;0.25;79.74;102530.31;5034139;28;20041;-69
2021/12/21 02:56:43;;;;;;;25.25;9.80;;;;;;;0.22;79.60;102525.22;5034160;28;20056;-69
2021/12/21 02:59:08;;;;;;;24.95;10.65;;;;;;;0.22;79.54;102533.22;5033323;28;20737;-69
2021/12/21 03:01:35;;;;;;;27.90;10.48;;;;;;;0.23;79.73;102524.25;5030549;28;20117;-69
2021/12/21 03:04:00;;;;;;;27.27;10.52;;;;;;;0.24;79.69;102528.63;5032264;28;20112;-70
2021/12/21 03:07:16;;;;;;;27.70;10.70;;;;;;;0.25;80.07;102525.00;5033537;28;20140;-69
2021/12/21 03:09:36;;;;;;;25.70;10.68;;;;;;;0.26;79.21;102518.72;5021870;28;20041;-68
2021/12/21 03:12:09;;;;;;;26.58;10.73;;;;;;;0.21;78.93;102528.84;5033419;28;20464;-69
2021/12/21 03:14:34;;;;;;;24.45;10.48;;;;;;;0.23;79.22;102532.22;5023126;28;20037;-69
2021/12/21 03:17:00;;;;;;;23.00;10.20;;;;;;;0.20;79.19;102528.00;5034098;28;20447;-69
2021/12/21 03:19:25;;;;;;;22.13;9.45;;;;;;;0.21;78.51;102523.53;5033568;28;20116;-72
2021/12/21 03:21:50;;;;;;;24.70;10.73;;;;;;;0.17;79.10;102522.91;5034019;28;20033;-70
2021/12/21 03:24:15;;;;;;;24.60;10.90;;;;;;;0.17;79.05;102520.25;5033317;28;20128;-71
2021/12/21 03:26:41;;;;;;;24.77;10.32;;;;;;;0.11;79.18;102518.06;5033030;28;20044;-68
2021/12/21 03:29:06;;;;;;;26.88;11.05;;;;;;;0.10;79.57;102511.88;5033354;28;20484;-68
2021/12/21 03:31:32;;;;;;;29.45;11.02;;;;;;;0.11;79.27;102523.38;5033512;28;20598;-68
2021/12/21 03:33:57;;;;;;;22.73;10.05;;;;;;;0.10;79.59;102522.50;5033471;28;20377;-68
2021/12/21 03:36:23;;;;;;;24.15;10.10;;;;;;;0.12;79.57;102515.28;5032947;28;20049;-68
2021/12/21 03:38:59;;;;;;;24.75;9.80;;;;;;;0.09;79.05;102512.84;5033552;28;20048;-68
2021/12/21 03:41:26;;;;;;;28.00;10.85;;;;;;;0.13;79.57;102519.63;5032228;28;20388;-68
2021/12/21 03:43:51;;;;;;;24.55;10.50;;;;;;;0.09;79.30;102512.84;5033486;28;20079;-68
2021/12/21 03:46:16;;;;;;;25.77;10.98;;;;;;;0.07;79.76;102504.09;5033100;28;20033;-68
2021/12/21 03:48:47;;;;;;;26.38;11.52;;;;;;;0.09;79.12;102507.53;5033140;28;20099;-68
2021/12/21 03:51:18;;;;;;;24.92;11.13;;;;;;;0.08;79.56;102508.47;5032778;28;20602;-68
2021/12/21 03:53:44;;;;;;;27.15;10.57;;;;;;;0.08;79.03;102513.81;5032684;28;20048;-67
2021/12/21 03:56:38;;;;;;;24.77;11.30;;;;;;;0.06;79.41;102512.22;5033117;28;20037;-68
2021/12/21 03:59:04;;;;;;;29.55;10.75;;;;;;;0.05;79.36;102507.88;5032635;28;20469;-69
2021/12/21 04:01:29;;;;;;;25.30;10.63;;;;;;;0.04;79.26;102500.84;5029246;28;20033;-68
2021/12/21 04:03:54;;;;;;;28.15;11.15;;;;;;;0.01;79.57;102507.22;5031130;28;20133;-68
2021/12/21 04:06:20;;;;;;;27.08;10.85;;;;;;;0.01;79.21;102501.06;5032792;28;20025;-68
2021/12/21 04:08:45;;;;;;;24.77;11.38;;;;;;;-0.02;79.46;102502.13;5032350;28;20033;-68
2021/12/21 04:11:10;;;;;;;25.45;10.57;;;;;;;-0.06;79.38;102498.88;5032501;28;20108;-68
2021/12/21 04:13:35;;;;;;;31.00;10.93;;;;;;;-0.02;79.25;102505.63;5032036;28;20095;-68
2021/12/21 04:16:04;;;;;;;25.63;11.00;;;;;;;-0.08;79.48;102497.28;5033013;28;20021;-68
2021/12/21 04:18:34;;;;;;;24.48;10.73;;;;;;;-0.09;78.90;102503.56;5032186;28;20493;-68
2021/12/21 04:20:59;;;;;;;27.08;11.05;;;;;;;-0.11;78.09;102503.66;5032514;28;20059;-68
2021/12/21 04:23:24;;;;;;;28.20;10.38;;;;;;;-0.11;78.75;102508.16;5032020;28;20473;-68
2021/12/21 04:25:50;;;;;;;33.85;10.82;;;;;;;-0.13;78.65;102502.09;5032869;28;20037;-68
2021/12/21 04:28:15;;;;;;;27.63;10.93;;;;;;;-0.13;79.48;102505.59;5032026;28;20033;-68
2021/12/21 04:30:40;;;;;;;23.38;10.98;;;;;;;-0.20;78.50;102505.22;5032202;28;20044;-68
2021/12/21 04:33:05;;;;;;;21.17;10.23;;;;;;;-0.17;78.69;102509.44;5031832;28;20027;-68
2021/12/21 04:35:31;;;;;;;22.85;10.95;;;;;;;-0.20;78.56;102499.91;5032097;28;20461;-68
2021/12/21 04:38:00;;;;;;;24.67;10.88;;;;;;;-0.19;78.67;102501.56;5032336;28;20052;-68
2021/12/21 04:40:38;;;;;;;25.50;10.88;;;;;;;-0.21;78.79;102492.03;5032224;28;20041;-68
2021/12/21 04:43:05;;;;;;;27.95;11.43;;;;;;;-0.21;78.34;102492.03;5032460;28;20029;-68
2021/12/21 04:45:31;;;;;;;24.88;11.45;;;;;;;-0.24;79.07;102495.75;5032114;28;20539;-68
2021/12/21 04:47:56;;;;;;;34.53;12.05;;;;;;;-0.24;79.24;102490.44;5032035;28;20056;-68
2021/12/21 04:50:22;;;;;;;25.33;10.95;;;;;;;-0.21;79.82;102495.53;5031552;28;20060;-68
2021/12/21 04:52:47;;;;;;;24.52;11.93;;;;;;;-0.22;79.90;102493.00;5032259;28;20033;-68
2021/12/21 04:55:12;;;;;;;30.30;11.95;;;;;;;-0.22;79.61;102493.81;5030772;28;20068;-68
2021/12/21 04:57:37;;;;;;;28.42;11.43;;;;;;;-0.21;79.40;102498.19;5032032;28;20033;-68
2021/12/21 05:00:05;;;;;;;27.23;11.10;;;;;;;-0.17;79.98;102498.81;5032124;28;20079;-68
2021/12/21 05:02:30;;;;;;;34.38;11.75;;;;;;;-0.17;79.71;102492.66;5029992;28;20047;-68
2021/12/21 05:04:55;;;;;;;31.25;12.35;;;;;;;-0.19;79.67;102496.25;5032197;28;20033;-68
2021/12/21 05:07:23;;;;;;;28.05;11.35;;;;;;;-0.20;79.99;102493.72;5032188;28;20091;-68
2021/12/21 05:09:55;;;;;;;29.10;11.43;;;;;;;-0.19;79.35;102493.59;5031833;28;20041;-68
2021/12/21 05:12:21;;;;;;;;;;;;;;;-0.04;79.95;102496.94;5028193;28;20033;-68
2021/12/21 05:14:47;;;;;;;31.13;12.07;;;;;;;-0.17;78.80;102497.97;5032228;28;19921;-68
2021/12/21 05:17:13;;;;;;;29.95;11.43;;;;;;;-0.17;78.75;102497.97;5031709;28;20044;-68
2021/12/21 05:19:38;;;;;;;30.05;11.43;;;;;;;-0.20;78.46;102494.56;5032082;28;20029;-68
2021/12/21 05:22:04;;;;;;;31.92;12.00;;;;;;;-0.22;79.43;102499.16;5031850;28;20048;-68
2021/12/21 05:24:29;;;;;;;23.73;10.90;;;;;;;-0.24;78.66;102497.56;5033922;28;20037;-67
2021/12/21 05:26:54;;;;;;;23.90;11.52;;;;;;;-0.31;78.85;102499.81;5035949;28;20108;-68
2021/12/21 05:29:20;;;;;;;29.80;11.18;;;;;;;-0.31;78.91;102502.50;5036104;28;20050;-68
2021/12/21 05:31:45;;;;;;;25.55;10.85;;;;;;;-0.34;78.76;102493.91;5035624;28;20056;-68
2021/12/21 05:34:11;;;;;;;27.45;11.52;;;;;;;-0.34;78.47;102492.06;5035280;28;20064;-68
2021/12/21 05:36:36;;;;;;;23.10;10.77;;;;;;;-0.36;78.65;102496.66;5035761;28;20053;-68
2021/12/21 05:39:05;;;;;;;24.80;11.05;;;;;;;-0.36;78.62;102499.31;5035610;28;20072;-68
2021/12/21 05:44:15;;;;;;;26.27;10.88;;;;;;;-0.41;78.48;102490.81;5035410;28;20447;-68
2021/12/21 05:46:41;;;;;;;27.48;10.70;;;;;;;-0.41;78.97;102496.13;5035419;28;20045;-68
2021/12/21 05:49:06;;;;;;;27.05;10.52;;;;;;;-0.44;77.95;102494.56;5035590;28;20554;-68
2021/12/21 05:51:32;;;;;;;30.42;11.30;;;;;;;-0.46;77.80;102508.94;5035201;28;20490;-67
2021/12/21 05:53:57;;;;;;;23.75;11.02;;;;;;;-0.51;78.68;102509.28;5035303;28;20388;-68
2021/12/21 05:56:22;;;;;;;25.15;11.55;;;;;;;-0.52;78.95;102509.38;5033917;28;20033;-69
2021/12/21 05:58:48;;;;;;;29.23;10.93;;;;;;;-0.49;78.67;102503.84;5035411;28;20029;-68
2021/12/21 06:01:13;;;;;;;23.48;11.45;;;;;;;-0.51;78.87;102503.09;5032848;28;20106;-68
2021/12/21 06:03:39;;;;;;;23.20;11.15;;;;;;;-0.48;78.71;102495.75;5034992;28;20040;-68
2021/12/21 06:06:10;;;;;;;31.20;12.05;;;;;;;-0.47;78.68;102491.28;5035048;28;20072;-68
2021/12/21 06:08:35;;;;;;;25.95;11.55;;;;;;;-0.46;78.92;102496.47;5035184;28;20037;-68
2021/12/21 06:11:05;;;;;;;25.02;10.93;;;;;;;-0.48;78.93;102495.75;5034485;28;20105;-68
2021/12/21 06:14:02;;;;;;;27.95;11.38;;;;;;;-0.50;78.11;102502.13;5035066;28;20147;-68
2021/12/21 06:26:40;;;;;;;24.77;11.70;;;;;;;-0.61;78.26;102494.94;5034931;28;20113;-68
2021/12/21 06:29:06;;;;;;;29.48;11.45;;;;;;;-0.66;77.55;102497.09;5033888;28;20124;-67
2021/12/21 06:31:32;;;;;;;29.98;11.38;;;;;;;-0.66;78.25;102499.75;5034712;28;20109;-70
2021/12/21 06:33:57;;;;;;;27.88;11.98;;;;;;;-0.66;78.41;102497.94;5034511;28;20040;-68
2021/12/21 06:36:23;;;;;;;27.23;12.43;;;;;;;-0.70;79.25;102488.47;5033223;28;20048;-68
2021/12/21 06:38:49;;;;;;;24.70;11.77;;;;;;;-0.69;78.80;102495.50;5033987;28;20507;-67
2021/12/21 06:41:15;;;;;;;25.77;12.40;;;;;;;-0.72;78.52;102491.25;5033862;28;20033;-70
2021/12/21 06:43:40;;;;;;;24.75;11.10;;;;;;;-0.69;78.14;102500.81;5034501;28;20040;-71
2021/12/21 06:46:14;;;;;;;26.40;12.05;;;;;;;-0.73;77.68;102497.50;5032985;28;20037;-70
2021/12/21 06:51:33;;;;;;;23.10;11.25;;;;;;;-0.74;78.57;102498.47;5024648;28;20091;-70
2021/12/21 06:53:59;;;;;;;23.23;11.52;;;;;;;-0.76;78.66;102495.06;5034624;28;20030;-69
2021/12/21 06:56:26;;;;;;;24.02;11.55;;;;;;;-0.75;79.28;102503.91;5034261;28;20041;-72
2021/12/21 06:58:53;;;;;;;28.40;11.65;;;;;;;-0.77;79.09;102500.50;5034474;28;20052;-71
2021/12/21 07:01:19;;;;;;;28.85;12.05;;;;;;;-0.73;79.13;102504.63;5031916;28;20513;-70
2021/12/21 07:03:44;;;;;;;27.90;11.45;;;;;;;-0.75;79.15;102503.91;5034434;28;20167;-69
2021/12/21 07:06:10;;;;;;;27.33;11.65;;;;;;;-0.76;78.55;102503.03;5034040;28;20029;-71
2021/12/21 07:08:48;;;;;;;26.65;12.10;;;;;;;-0.76;78.97;102499.53;5033996;28;20049;-69
2021/12/21 07:11:31;;;;;;;29.67;11.68;;;;;;;-0.76;78.15;102497.72;5033004;28;20370;-70
2021/12/21 07:19:24;;;;;;;25.05;11.77;;;;;;;-0.83;78.06;102503.59;5033719;28;20500;-72
2021/12/21 07:21:50;;;;;;;28.08;11.38;;;;;;;-0.89;78.29;102507.56;5034112;28;20033;-71
2021/12/21 07:24:15;;;;;;;24.83;11.43;;;;;;;-0.94;78.38;102507.84;5034101;28;20034;-72
2021/12/21 07:26:40;;;;;;;26.52;11.68;;;;;;;-0.92;78.16;102513.94;5033742;28;20453;-71
2021/12/21 07:29:06;;;;;;;24.90;11.48;;;;;;;-0.93;78.21;102511.38;5033915;28;20052;-72
2021/12/21 07:31:31;;;;;;;25.70;11.93;;;;;;;-0.93;78.53;102506.91;5033513;28;20037;-72
2021/12/21 07:33:58;;;;;;;29.27;12.35;;;;;;;-0.93;78.84;102509.56;5033874;28;20032;-69
2021/12/21 07:36:24;;;;;;;23.65;11.48;;;;;;;-0.92;79.06;102505.97;5033283;28;20050;-71
2021/12/21 07:38:49;;;;;;;28.50;12.32;;;;;;;-0.93;78.40;102511.38;5033555;28;20095;-71
2021/12/21 07:41:14;;;;;;;27.73;11.70;;;;;;;-0.93;78.06;102514.88;5033695;28;20450;-69
2021/12/21 07:43:40;;;;;;;24.92;11.63;;;;;;;-0.95;78.82;102521.25;5033471;28;20028;-69
2021/12/21 07:46:05;;;;;;;28.25;12.02;;;;;;;-0.97;78.67;102513.38;5033473;28;20108;-71
2021/12/21 07:48:30;;;;;;;27.63;11.77;;;;;;;-0.98;78.88;102525.00;5032059;28;20026;-71
2021/12/21 07:50:56;;;;;;;32.80;12.00;;;;;;;-1.00;78.41;102521.56;5033546;28;20036;-68
2021/12/21 07:53:22;;;;;;;28.73;12.10;;;;;;;-1.00;78.37;102521.56;5032867;28;20109;-72
2021/12/21 07:55:47;;;;;;;28.08;12.30;;;;;;;-1.01;79.10;102524.34;5031899;28;20457;-71
2021/12/21 07:58:13;;;;;;;26.45;11.90;;;;;;;-1.00;78.53;102520.75;5033088;28;20104;-71
2021/12/21 08:00:39;;;;;;;26.60;12.15;;;;;;;-1.02;77.82;102525.31;5029571;28;20064;-69
2021/12/21 08:03:04;;;;;;;27.35;11.98;;;;;;;-1.03;78.52;102524.44;5033325;28;20033;-69
2021/12/21 08:05:33;;;;;;;23.63;11.48;;;;;;;-1.03;78.67;102535.09;5033051;28;20116;-69
2021/12/21 08:08:17;;;;;;;26.42;11.82;;;;;;;-1.02;79.18;102533.28;5033192;28;20025;-69
2021/12/21 08:10:50;;;;;;;32.53;12.50;;;;;;;-1.00;78.57;102534.03;5032900;28;20021;-68
2021/12/21 08:13:16;;;;;;;25.42;12.15;;;;;;;-1.03;79.12;102527.09;5031856;28;20033;-70
2021/12/21 08:15:42;;;;;;;26.40;11.65;;;;;;;-0.96;78.37;102536.34;5033150;28;20029;-70
2021/12/21 08:18:07;;;;;;;29.50;12.02;;;;;;;-0.96;78.49;102539.03;5031485;28;20116;-71
2021/12/21 08:20:33;;;;;;;26.48;12.70;;;;;;;-0.97;78.14;102531.16;5032696;28;20068;-70
2021/12/21 08:22:58;;;;;;;27.05;12.00;;;;;;;-0.96;78.18;102533.69;5033045;28;20461;-70
2021/12/21 08:25:26;;;;;;;24.70;12.27;;;;;;;-0.98;78.27;102532.97;5032686;28;20049;-70
2021/12/21 08:27:56;;;;;;;29.00;12.40;;;;;;;-1.00;78.12;102529.56;5032964;28;20060;-70
2021/12/21 08:30:21;;;;;;;26.65;12.70;;;;;;;-1.00;78.60;102537.53;5032290;28;20034;-71
2021/12/21 08:32:46;;;;;;;24.35;12.35;;;;;;;-0.99;78.18;102536.56;5032744;28;20033;-71
2021/12/21 08:35:14;;;;;;;26.85;11.82;;;;;;;-1.01;78.21;102530.53;5032854;28;20037;-69
2021/12/21 08:37:41;;;;;;;26.65;12.43;;;;;;;-1.01;78.19;102529.66;5032096;28;20121;-71
2021/12/21 08:40:10;;;;;;;25.55;12.57;;;;;;;-0.98;78.85;102532.97;5032973;28;20033;-71
2021/12/21 08:42:37;;;;;;;26.65;12.23;;;;;;;-0.96;78.85;102530.22;5032473;28;20025;-70
2021/12/21 08:45:06;;;;;;;27.17;12.68;;;;;;;-0.94;79.03;102531.78;5032656;28;20025;-70
2021/12/21 08:47:38;;;;;;;26.42;13.30;;;;;;;-0.92;78.29;102537.84;5031138;28;20033;-69
2021/12/21 08:50:04;;;;;;;;;;;;;;;-0.74;78.58;102538.34;5033240;28;20518;-70
2021/12/21 08:52:31;;;;;;;29.00;11.98;;;;;;;-0.80;79.32;102537.94;5031986;28;19913;-71
2021/12/21 08:54:56;;;;;;;25.77;11.85;;;;;;;-0.78;78.87;102538.69;5032486;28;20029;-72
2021/12/21 08:57:22;;;;;;;29.55;13.13;;;;;;;-0.82;79.98;102539.84;5032684;28;20079;-69
2021/12/21 08:59:47;;;;;;;26.15;13.35;;;;;;;-0.79;78.92;102534.31;5038241;28;20032;-69
2021/12/21 09:02:12;;;;;;;30.75;13.50;;;;;;;-0.84;80.46;102534.66;5036812;28;20029;-69
2021/12/21 09:04:40;;;;;;;31.08;14.43;;;;;;;-0.90;80.27;102545.72;5038898;28;20453;-71
2021/12/21 09:07:05;;;;;;;33.25;15.65;;;;;;;-1.03;80.78;102548.38;5039061;28;20029;-70
2021/12/21 09:09:31;;;;;;;33.65;14.65;;;;;;;-1.08;81.23;102545.19;5038767;28;20032;-68
2021/12/21 09:11:56;;;;;;;32.00;15.73;;;;;;;-1.15;81.61;102554.53;5038947;28;20048;-70
2021/12/21 09:14:22;;;;;;;34.50;15.05;;;;;;;-1.16;81.84;102550.16;5038744;28;20087;-71
2021/12/21 09:16:47;;;;;;;35.83;15.38;;;;;;;-1.16;81.87;102547.50;5038806;28;20033;-71
2021/12/21 09:19:13;;;;;;;36.13;14.63;;;;;;;-1.31;82.78;102539.66;5037733;28;20037;-70
2021/12/21 09:21:38;;;;;;;39.25;15.70;;;;;;;-1.27;82.55;102541.16;5038673;28;20037;-69
2021/12/21 09:24:04;;;;;;;31.58;14.43;;;;;;;-1.31;83.03;102542.31;5038756;28;20025;-72
2021/12/21 09:26:29;;;;;;;34.03;15.38;;;;;;;-1.29;83.27;102543.06;5037244;28;20112;-69
2021/12/21 09:28:56;;;;;;;31.80;15.27;;;;;;;-1.26;83.16;102547.31;5037367;28;20091;-70
2021/12/21 09:31:22;;;;;;;37.22;16.00;;;;;;;-1.18;83.68;102542.31;5038532;28;20028;-71
2021/12/21 09:33:47;;;;;;;31.00;15.82;;;;;;;-1.12;82.85;102547.22;5038418;28;20044;-74
2021/12/21 09:36:12;;;;;;;37.63;16.80;;;;;;;-1.10;83.07;102541.81;5038276;28;20048;-69
2021/12/21 09:38:37;;;;;;;34.70;15.80;;;;;;;-1.02;83.43;102538.59;5038432;28;20029;-70
2021/12/21 09:41:04;;;;;;;32.28;15.80;;;;;;;-0.94;82.61;102550.38;5038846;28;20065;-71
2021/12/21 09:43:31;;;;;;;33.33;15.95;;;;;;;-0.81;82.46;102545.06;5038353;28;20037;-74
2021/12/21 09:45:56;;;;;;;31.70;14.52;;;;;;;-0.76;82.37;102539.41;5038528;28;20104;-69
2021/12/21 09:48:23;;;;;;;36.50;18.30;;;;;;;-0.66;82.59;102540.47;5037203;28;20180;-71
2021/12/21 09:50:49;;;;;;;31.63;15.23;;;;;;;-0.54;81.86;102542.25;5038181;28;20025;-71
2021/12/21 09:53:14;;;;;;;29.05;15.07;;;;;;;-0.44;82.04;102544.25;5038545;28;20030;-72
2021/12/21 09:55:39;;;;;;;33.08;14.32;;;;;;;-0.37;81.95;102542.84;5038110;28;20622;-74
2021/12/21 09:58:05;;;;;;;36.55;14.90;;;;;;;-0.31;81.94;102539.72;5038864;28;20386;-73
2021/12/21 10:00:32;;;;;;;28.98;14.27;;;;;;;-0.19;81.51;102543.31;5036860;28;20041;-69
2021/12/21 10:03:03;;;;;;;29.05;14.23;;;;;;;-0.14;81.33;102540.31;5038431;28;20076;-72
2021/12/21 10:05:31;;;;;;;30.27;15.07;;;;;;;-0.08;80.89;102534.53;5038281;28;20460;-73
2021/12/21 10:08:02;;;;;;;30.48;14.68;;;;;;;-0.03;80.70;102527.03;5038546;28;20533;-72
2021/12/21 10:10:34;;;;;;;26.83;14.23;;;;;;;0.02;81.07;102519.59;5036369;28;20025;-70
2021/12/21 10:13:15;;;;;;;30.27;15.48;;;;;;;0.08;80.31;102519.13;5035050;28;20044;-70
2021/12/21 10:15:44;;;;;;;30.17;14.50;;;;;;;0.19;81.13;102525.47;5034764;28;20446;-71
2021/12/21 10:18:11;;;;;;;27.67;15.20;;;;;;;0.24;81.08;102529.47;5034012;28;20112;-74
2021/12/21 10:20:39;;;;;;;30.38;14.40;;;;;;;0.26;80.74;102532.88;5035103;28;20033;-71
2021/12/21 10:23:10;;;;;;;30.73;15.18;;;;;;;0.35;80.81;102534.00;5035163;28;20468;-71
2021/12/21 10:25:45;;;;;;;29.67;13.88;;;;;;;0.41;80.18;102533.53;5034895;28;20036;-70
2021/12/21 10:28:11;;;;;;;29.17;14.55;;;;;;;0.46;80.10;102518.03;5035135;28;20100;-71
2021/12/21 10:30:48;;;;;;;28.52;13.13;;;;;;;0.52;79.67;102516.72;5035039;28;20030;-70
2021/12/21 10:33:14;;;;;;;29.23;13.80;;;;;;;0.60;79.34;102516.13;5034891;28;20064;-74
2021/12/21 10:35:39;;;;;;;27.15;12.80;;;;;;;0.64;79.79;102507.78;5033302;28;20065;-70
2021/12/21 10:38:05;;;;;;;24.08;12.32;;;;;;;0.68;78.79;102511.03;5035168;28;20372;-72
2021/12/21 10:40:30;;;;;;;27.60;13.02;;;;;;;0.70;79.48;102504.63;5034522;28;20036;-72
2021/12/21 10:42:59;;;;;;;25.23;12.35;;;;;;;0.79;79.60;102505.75;5034783;28;20070;-74
2021/12/21 10:45:30;;;;;;;22.05;11.80;;;;;;;0.84;79.84;102516.88;5034726;28;20425;-72
2021/12/21 10:47:56;;;;;;;;;;;;;;;1.00;79.61;102508.53;5035114;28;20476;-73
2021/12/21 10:50:23;;;;;;;22.25;11.88;;;;;;;0.98;79.23;102506.94;5034525;28;19920;-73
2021/12/21 10:52:51;;;;;;;25.67;12.50;;;;;;;0.96;79.14;102504.41;5034232;28;20033;-73
2021/12/21 10:55:23;;;;;;;25.40;12.55;;;;;;;0.99;78.86;102498.84;5033133;28;20127;-74
2021/12/21 10:57:48;;;;;;;27.75;12.30;;;;;;;1.08;79.19;102507.94;5034235;28;20029;-70
2021/12/21 11:00:16;;;;;;;23.10;12.32;;;;;;;1.13;78.47;102492.41;5034382;28;20457;-72
2021/12/21 11:02:41;;;;;;;24.42;11.95;;;;;;;1.17;79.03;102496.53;5031908;28;20113;-73
2021/12/21 11:05:16;;;;;;;24.30;12.75;;;;;;;1.26;79.51;102494.94;5034422;28;20065;-70
2021/12/21 11:07:48;;;;;;;26.55;13.05;;;;;;;1.27;79.26;102495.78;5034115;28;20057;-74
2021/12/21 11:10:16;;;;;;;;;;;;;;;1.43;79.21;102501.59;5033048;28;20025;-72
2021/12/21 11:12:49;;;;;;;27.50;11.73;;;;;;;1.38;78.65;102498.44;5034067;28;19955;-71
2021/12/21 11:15:21;;;;;;;20.38;11.60;;;;;;;1.40;78.46;102491.16;5034210;28;20513;-72
2021/12/21 11:17:46;;;;;;;;;;;;;;;1.49;78.63;102495.75;5034414;28;20038;-72
2021/12/21 11:20:13;;;;;;;19.40;11.02;;;;;;;1.41;78.39;102493.69;5034175;28;19920;-72
2021/12/21 11:22:42;;;;;;;21.67;10.85;;;;;;;1.43;78.49;102490.91;5033055;28;20029;-72
2021/12/21 11:25:09;;;;;;;21.65;10.90;;;;;;;1.46;78.46;102493.31;5034019;28;20381;-73
2021/12/21 11:27:36;;;;;;;22.15;11.95;;;;;;;1.48;78.48;102488.75;5033737;28;20531;-70
2021/12/21 11:30:08;;;;;;;22.13;11.10;;;;;;;1.52;78.45;102484.00;5033916;28;20025;-74
2021/12/21 11:32:38;;;;;;;23.92;11.63;;;;;;;1.54;78.61;102471.34;5033713;28;20514;-73
2021/12/21 11:37:20;;;;;;;21.13;11.02;;;;;;;1.56;78.14;102464.09;5033943;28;20484;-71
2021/12/21 11:37:57;;;;;;;21.77;11.35;;;;;;;1.62;78.10;102455.59;5033069;28;20049;-73
2021/12/21 11:40:38;;;;;;;20.70;10.43;;;;;;;1.64;77.63;102434.94;5032397;28;20033;-70
2021/12/21 11:43:30;;;;;;;18.73;9.97;;;;;;;1.76;77.57;102438.41;5033423;28;20534;-69
2021/12/21 11:46:07;;;;;;;19.88;9.50;;;;;;;1.75;77.07;102431.38;5033253;28;20734;-71
2021/12/21 11:49:09;;;;;;;15.57;8.70;;;;;;;1.84;77.11;102453.78;5032103;28;20134;-70
2021/12/21 11:51:35;;;;;;;16.45;8.30;;;;;;;1.83;75.52;102442.28;5033187;28;20393;-69
2021/12/21 11:54:00;;;;;;;17.95;8.07;;;;;;;1.84;76.69;102445.78;5033066;28;20025;-70
2021/12/21 11:56:27;;;;;;;18.75;8.52;;;;;;;1.85;75.68;102437.66;5033354;28;20453;-70
2021/12/21 11:58:55;;;;;;;16.83;8.70;;;;;;;1.87;75.22;102433.06;5033130;28;20037;-73
2021/12/21 12:01:26;;;;;;;14.98;8.60;;;;;;;1.92;76.02;102440.66;5030860;28;20051;-71
2021/12/21 12:04:06;;;;;;;17.15;8.75;;;;;;;1.94;75.17;102442.22;5033052;28;20159;-70
2021/12/21 12:06:49;;;;;;;17.17;8.85;;;;;;;1.97;75.32;102432.28;5033240;28;20040;-72
2021/12/21 12:09:41;;;;;;;17.27;9.05;;;;;;;1.99;75.86;102439.16;5032860;28;20026;-73
2021/12/21 12:12:09;;;;;;;17.00;8.55;;;;;;;2.00;74.80;102434.69;5030147;28;20071;-74